sensor_id;sensor_type;location;lat;lon;timestamp;temperature;humidity
22167;DHT22;11249;52.468;13.776;2023-04-29T00:00:42;11.50;99.90
22167;DHT22;11249;52.468;13.776;2023-04-29T00:03:09;11.50;99.90
22167;DHT22;11249;52.468;13.776;2023-04-29T00:05:36;11.50;99.90
22167;DHT22;11249;52.468;13.776;2023-04-29T00:08:04;11.50;99.90
22167;DHT22;11249;52.468;13.776;2023-04-29T00:10:31;11.50;99.90
22167;DHT22;11249;52.468;13.776;2023-04-29T00:12:58;11.60;99.90
22167;DHT22;11249;52.468;13.776;2023-04-29T00:15:24;11.50;99.90
22167;DHT22;11249;52.468;13.776;2023-04-29T00:17:51;11.50;99.90
22167;DHT22;11249;52.468;13.776;2023-04-29T00:20:18;11.50;99.90
22167;DHT22;11249;52.468;13.776;2023-04-29T00:22:45;11.50;99.90
22167;DHT22;11249;52.468;13.776;2023-04-29T00:25:12;11.40;99.90
22167;DHT22;11249;52.468;13.776;2023-04-29T00:27:39;11.40;99.90
22167;DHT22;11249;52.468;13.776;2023-04-29T00:30:07;11.50;99.90
22167;DHT22;11249;52.468;13.776;2023-04-29T00:32:34;11.40;99.90
22167;DHT22;11249;52.468;13.776;2023-04-29T00:35:01;11.40;99.90
22167;DHT22;11249;52.468;13.776;2023-04-29T00:37:27;11.40;99.90
22167;DHT22;11249;52.468;13.776;2023-04-29T00:39:54;11.40;99.90
22167;DHT22;11249;52.468;13.776;2023-04-29T00:42:21;11.40;99.90
22167;DHT22;11249;52.468;13.776;2023-04-29T00:44:47;11.40;99.90
22167;DHT22;11249;52.468;13.776;2023-04-29T00:47:14;11.40;99.90
22167;DHT22;11249;52.468;13.776;2023-04-29T00:49:41;11.40;99.90
22167;DHT22;11249;52.468;13.776;2023-04-29T00:52:10;11.40;99.90
22167;DHT22;11249;52.468;13.776;2023-04-29T00:54:37;11.40;99.90
22167;DHT22;11249;52.468;13.776;2023-04-29T00:57:04;11.40;99.90
22167;DHT22;11249;52.468;13.776;2023-04-29T00:59:32;11.40;99.90
22167;DHT22;11249;52.468;13.776;2023-04-29T01:02:01;11.30;99.90
22167;DHT22;11249;52.468;13.776;2023-04-29T01:04:30;11.30;99.90
22167;DHT22;11249;52.468;13.776;2023-04-29T01:10:02;11.30;99.90
22167;DHT22;11249;52.468;13.776;2023-04-29T01:15:16;11.30;99.90
22167;DHT22;11249;52.468;13.776;2023-04-29T01:18:11;11.30;99.90
22167;DHT22;11249;52.468;13.776;2023-04-29T01:20:40;11.30;99.90
22167;DHT22;11249;52.468;13.776;2023-04-29T01:23:07;11.30;99.90
22167;DHT22;11249;52.468;13.776;2023-04-29T01:25:34;11.30;99.90
22167;DHT22;11249;52.468;13.776;2023-04-29T01:28:08;11.20;99.90
22167;DHT22;11249;52.468;13.776;2023-04-29T01:30:47;11.20;99.90
22167;DHT22;11249;52.468;13.776;2023-04-29T01:33:28;11.20;99.90
22167;DHT22;11249;52.468;13.776;2023-04-29T01:36:28;11.20;99.90
22167;DHT22;11249;52.468;13.776;2023-04-29T01:42:09;11.20;99.90
22167;DHT22;11249;52.468;13.776;2023-04-29T01:44:40;11.20;99.90
22167;DHT22;11249;52.468;13.776;2023-04-29T01:47:09;11.10;99.90
22167;DHT22;11249;52.468;13.776;2023-04-29T01:49:38;11.20;99.90
22167;DHT22;11249;52.468;13.776;2023-04-29T01:52:05;11.10;99.90
22167;DHT22;11249;52.468;13.776;2023-04-29T01:54:32;11.10;99.90
22167;DHT22;11249;52.468;13.776;2023-04-29T01:57:02;11.10;99.90
22167;DHT22;11249;52.468;13.776;2023-04-29T01:59:29;11.10;99.90
22167;DHT22;11249;52.468;13.776;2023-04-29T02:01:57;11.00;99.90
22167;DHT22;11249;52.468;13.776;2023-04-29T02:04:24;11.10;99.90
22167;DHT22;11249;52.468;13.776;2023-04-29T02:06:51;11.00;99.90
22167;DHT22;11249;52.468;13.776;2023-04-29T02:09:18;11.00;99.90
22167;DHT22;11249;52.468;13.776;2023-04-29T02:11:45;11.00;99.90
22167;DHT22;11249;52.468;13.776;2023-04-29T02:14:11;11.00;99.90
22167;DHT22;11249;52.468;13.776;2023-04-29T02:16:38;10.90;99.90
22167;DHT22;11249;52.468;13.776;2023-04-29T02:19:05;10.90;99.90
22167;DHT22;11249;52.468;13.776;2023-04-29T02:21:32;10.90;99.90
22167;DHT22;11249;52.468;13.776;2023-04-29T02:24:00;10.90;99.90
22167;DHT22;11249;52.468;13.776;2023-04-29T02:26:27;10.80;99.90
22167;DHT22;11249;52.468;13.776;2023-04-29T02:28:54;10.80;99.90
22167;DHT22;11249;52.468;13.776;2023-04-29T02:31:22;10.80;99.90
22167;DHT22;11249;52.468;13.776;2023-04-29T02:33:49;10.80;99.90
22167;DHT22;11249;52.468;13.776;2023-04-29T02:36:16;10.80;99.90
22167;DHT22;11249;52.468;13.776;2023-04-29T02:38:43;10.80;99.90
22167;DHT22;11249;52.468;13.776;2023-04-29T02:41:15;10.80;99.90
22167;DHT22;11249;52.468;13.776;2023-04-29T02:43:42;10.70;99.90
22167;DHT22;11249;52.468;13.776;2023-04-29T02:46:10;10.70;99.90
22167;DHT22;11249;52.468;13.776;2023-04-29T02:48:37;10.70;99.90
22167;DHT22;11249;52.468;13.776;2023-04-29T02:51:03;10.70;99.90
22167;DHT22;11249;52.468;13.776;2023-04-29T02:53:30;10.70;99.90
22167;DHT22;11249;52.468;13.776;2023-04-29T02:55:57;10.70;99.90
22167;DHT22;11249;52.468;13.776;2023-04-29T02:58:23;10.70;99.90
22167;DHT22;11249;52.468;13.776;2023-04-29T03:00:50;10.70;99.90
22167;DHT22;11249;52.468;13.776;2023-04-29T03:03:17;10.70;99.90
22167;DHT22;11249;52.468;13.776;2023-04-29T03:05:44;10.70;99.90
22167;DHT22;11249;52.468;13.776;2023-04-29T03:08:11;10.80;99.90
22167;DHT22;11249;52.468;13.776;2023-04-29T03:10:37;10.70;99.90
22167;DHT22;11249;52.468;13.776;2023-04-29T03:13:07;10.70;99.90
22167;DHT22;11249;52.468;13.776;2023-04-29T03:15:34;10.70;99.90
22167;DHT22;11249;52.468;13.776;2023-04-29T03:18:00;10.70;99.90
22167;DHT22;11249;52.468;13.776;2023-04-29T03:20:29;10.70;99.90
22167;DHT22;11249;52.468;13.776;2023-04-29T03:22:56;10.80;99.90
22167;DHT22;11249;52.468;13.776;2023-04-29T03:25:23;10.80;99.90
22167;DHT22;11249;52.468;13.776;2023-04-29T03:27:50;10.80;99.90
22167;DHT22;11249;52.468;13.776;2023-04-29T03:30:17;10.70;99.90
22167;DHT22;11249;52.468;13.776;2023-04-29T03:32:43;10.70;99.90
22167;DHT22;11249;52.468;13.776;2023-04-29T03:35:10;10.70;99.90
22167;DHT22;11249;52.468;13.776;2023-04-29T03:37:40;10.70;99.90
22167;DHT22;11249;52.468;13.776;2023-04-29T03:40:10;10.70;99.90
22167;DHT22;11249;52.468;13.776;2023-04-29T03:42:37;10.70;99.90
22167;DHT22;11249;52.468;13.776;2023-04-29T03:45:04;10.70;99.90
22167;DHT22;11249;52.468;13.776;2023-04-29T03:47:32;10.70;99.90
22167;DHT22;11249;52.468;13.776;2023-04-29T03:49:58;10.80;99.90
22167;DHT22;11249;52.468;13.776;2023-04-29T03:52:25;10.70;99.90
22167;DHT22;11249;52.468;13.776;2023-04-29T03:54:52;10.80;99.90
22167;DHT22;11249;52.468;13.776;2023-04-29T03:57:19;10.80;99.90
22167;DHT22;11249;52.468;13.776;2023-04-29T03:59:46;10.80;99.90
22167;DHT22;11249;52.468;13.776;2023-04-29T04:02:16;10.80;99.90
22167;DHT22;11249;52.468;13.776;2023-04-29T04:04:43;10.80;99.90
22167;DHT22;11249;52.468;13.776;2023-04-29T04:07:10;10.80;99.90
22167;DHT22;11249;52.468;13.776;2023-04-29T04:09:37;10.80;99.90
22167;DHT22;11249;52.468;13.776;2023-04-29T04:12:04;10.90;99.90
22167;DHT22;11249;52.468;13.776;2023-04-29T04:14:32;10.90;99.90
22167;DHT22;11249;52.468;13.776;2023-04-29T04:16:58;10.80;99.90
22167;DHT22;11249;52.468;13.776;2023-04-29T04:19:25;10.80;99.90
22167;DHT22;11249;52.468;13.776;2023-04-29T04:21:52;10.80;99.90
22167;DHT22;11249;52.468;13.776;2023-04-29T04:24:19;10.80;99.90
22167;DHT22;11249;52.468;13.776;2023-04-29T04:26:46;10.80;99.90
22167;DHT22;11249;52.468;13.776;2023-04-29T04:29:13;10.90;99.90
22167;DHT22;11249;52.468;13.776;2023-04-29T04:31:39;10.90;99.90
22167;DHT22;11249;52.468;13.776;2023-04-29T04:34:06;11.00;99.90
22167;DHT22;11249;52.468;13.776;2023-04-29T04:36:33;11.00;99.90
22167;DHT22;11249;52.468;13.776;2023-04-29T04:38:59;10.90;99.90
22167;DHT22;11249;52.468;13.776;2023-04-29T04:41:26;11.00;99.90
22167;DHT22;11249;52.468;13.776;2023-04-29T04:43:53;11.00;99.90
22167;DHT22;11249;52.468;13.776;2023-04-29T04:46:20;11.00;99.90
22167;DHT22;11249;52.468;13.776;2023-04-29T04:48:46;11.00;99.90
22167;DHT22;11249;52.468;13.776;2023-04-29T04:51:13;11.00;99.90
22167;DHT22;11249;52.468;13.776;2023-04-29T04:53:40;11.10;99.90
22167;DHT22;11249;52.468;13.776;2023-04-29T04:56:07;11.00;99.90
22167;DHT22;11249;52.468;13.776;2023-04-29T04:58:34;11.10;99.90
22167;DHT22;11249;52.468;13.776;2023-04-29T05:01:01;11.10;99.90
22167;DHT22;11249;52.468;13.776;2023-04-29T05:03:28;11.10;99.90
22167;DHT22;11249;52.468;13.776;2023-04-29T05:05:58;11.10;99.90
22167;DHT22;11249;52.468;13.776;2023-04-29T05:08:26;11.20;99.90
22167;DHT22;11249;52.468;13.776;2023-04-29T05:10:53;11.20;99.90
22167;DHT22;11249;52.468;13.776;2023-04-29T05:13:20;11.20;99.90
22167;DHT22;11249;52.468;13.776;2023-04-29T05:15:47;11.30;99.90
22167;DHT22;11249;52.468;13.776;2023-04-29T05:18:13;11.30;99.90
22167;DHT22;11249;52.468;13.776;2023-04-29T05:20:40;11.30;99.90
22167;DHT22;11249;52.468;13.776;2023-04-29T05:23:07;11.30;99.90
22167;DHT22;11249;52.468;13.776;2023-04-29T05:25:34;11.40;99.90
22167;DHT22;11249;52.468;13.776;2023-04-29T05:28:01;11.30;99.90
22167;DHT22;11249;52.468;13.776;2023-04-29T05:30:28;11.30;99.90
22167;DHT22;11249;52.468;13.776;2023-04-29T05:32:55;11.30;99.90
22167;DHT22;11249;52.468;13.776;2023-04-29T05:35:22;11.30;99.90
22167;DHT22;11249;52.468;13.776;2023-04-29T05:37:49;11.40;99.90
22167;DHT22;11249;52.468;13.776;2023-04-29T05:40:15;11.30;99.90
22167;DHT22;11249;52.468;13.776;2023-04-29T05:42:42;11.40;99.90
22167;DHT22;11249;52.468;13.776;2023-04-29T05:45:09;11.30;99.90
22167;DHT22;11249;52.468;13.776;2023-04-29T05:47:36;11.40;99.90
22167;DHT22;11249;52.468;13.776;2023-04-29T05:50:03;11.30;99.90
22167;DHT22;11249;52.468;13.776;2023-04-29T05:52:30;11.30;99.90
22167;DHT22;11249;52.468;13.776;2023-04-29T05:54:56;11.40;99.90
22167;DHT22;11249;52.468;13.776;2023-04-29T05:57:23;11.40;99.90
22167;DHT22;11249;52.468;13.776;2023-04-29T05:59:50;11.40;99.90
22167;DHT22;11249;52.468;13.776;2023-04-29T06:02:17;11.40;99.90
22167;DHT22;11249;52.468;13.776;2023-04-29T06:04:44;11.50;99.90
22167;DHT22;11249;52.468;13.776;2023-04-29T06:07:13;11.50;99.90
22167;DHT22;11249;52.468;13.776;2023-04-29T06:09:40;11.50;99.90
22167;DHT22;11249;52.468;13.776;2023-04-29T06:12:08;11.50;99.90
22167;DHT22;11249;52.468;13.776;2023-04-29T06:14:35;11.60;99.90
22167;DHT22;11249;52.468;13.776;2023-04-29T06:17:01;11.60;99.90
22167;DHT22;11249;52.468;13.776;2023-04-29T06:19:29;11.70;99.90
22167;DHT22;11249;52.468;13.776;2023-04-29T06:21:58;11.70;99.90
22167;DHT22;11249;52.468;13.776;2023-04-29T06:24:24;11.80;99.90
22167;DHT22;11249;52.468;13.776;2023-04-29T06:26:51;11.80;99.90
22167;DHT22;11249;52.468;13.776;2023-04-29T06:29:18;11.80;99.90
22167;DHT22;11249;52.468;13.776;2023-04-29T06:31:44;11.80;99.90
22167;DHT22;11249;52.468;13.776;2023-04-29T06:34:11;11.90;99.90
22167;DHT22;11249;52.468;13.776;2023-04-29T06:36:38;11.90;99.90
22167;DHT22;11249;52.468;13.776;2023-04-29T06:39:05;11.90;99.90
22167;DHT22;11249;52.468;13.776;2023-04-29T06:41:32;11.90;99.90
22167;DHT22;11249;52.468;13.776;2023-04-29T06:44:00;11.90;99.90
22167;DHT22;11249;52.468;13.776;2023-04-29T06:46:27;11.90;99.90
22167;DHT22;11249;52.468;13.776;2023-04-29T06:48:54;11.90;99.90
22167;DHT22;11249;52.468;13.776;2023-04-29T06:51:21;12.00;99.90
22167;DHT22;11249;52.468;13.776;2023-04-29T06:53:48;12.00;99.90
22167;DHT22;11249;52.468;13.776;2023-04-29T06:56:14;12.00;99.90
22167;DHT22;11249;52.468;13.776;2023-04-29T06:58:42;12.00;99.90
22167;DHT22;11249;52.468;13.776;2023-04-29T07:01:09;12.00;99.90
22167;DHT22;11249;52.468;13.776;2023-04-29T07:03:36;12.00;99.90
22167;DHT22;11249;52.468;13.776;2023-04-29T07:06:03;12.00;99.90
22167;DHT22;11249;52.468;13.776;2023-04-29T07:08:30;12.00;99.90
22167;DHT22;11249;52.468;13.776;2023-04-29T07:10:57;12.10;99.90
22167;DHT22;11249;52.468;13.776;2023-04-29T07:13:25;12.00;99.90
22167;DHT22;11249;52.468;13.776;2023-04-29T07:15:51;12.10;99.90
22167;DHT22;11249;52.468;13.776;2023-04-29T07:18:18;12.10;99.90
22167;DHT22;11249;52.468;13.776;2023-04-29T07:20:45;12.20;99.90
22167;DHT22;11249;52.468;13.776;2023-04-29T07:23:13;12.20;99.90
22167;DHT22;11249;52.468;13.776;2023-04-29T07:25:40;12.20;99.90
22167;DHT22;11249;52.468;13.776;2023-04-29T07:28:07;12.20;99.90
22167;DHT22;11249;52.468;13.776;2023-04-29T07:30:34;12.20;99.90
22167;DHT22;11249;52.468;13.776;2023-04-29T07:33:01;12.20;99.90
22167;DHT22;11249;52.468;13.776;2023-04-29T07:35:30;12.20;99.90
22167;DHT22;11249;52.468;13.776;2023-04-29T07:37:57;12.20;99.90
22167;DHT22;11249;52.468;13.776;2023-04-29T07:40:23;12.20;99.90
22167;DHT22;11249;52.468;13.776;2023-04-29T07:42:50;12.30;99.90
22167;DHT22;11249;52.468;13.776;2023-04-29T07:45:17;12.20;99.90
22167;DHT22;11249;52.468;13.776;2023-04-29T07:47:44;12.20;99.90
22167;DHT22;11249;52.468;13.776;2023-04-29T07:50:11;12.20;99.90
22167;DHT22;11249;52.468;13.776;2023-04-29T07:52:38;12.20;99.90
22167;DHT22;11249;52.468;13.776;2023-04-29T07:55:05;12.30;99.90
22167;DHT22;11249;52.468;13.776;2023-04-29T07:57:32;12.20;99.90
22167;DHT22;11249;52.468;13.776;2023-04-29T07:59:58;12.20;99.90
22167;DHT22;11249;52.468;13.776;2023-04-29T08:02:25;12.20;99.90
22167;DHT22;11249;52.468;13.776;2023-04-29T08:04:52;12.30;99.90
22167;DHT22;11249;52.468;13.776;2023-04-29T08:07:22;12.30;99.90
22167;DHT22;11249;52.468;13.776;2023-04-29T08:09:48;12.20;99.90
22167;DHT22;11249;52.468;13.776;2023-04-29T08:12:15;12.20;99.90
22167;DHT22;11249;52.468;13.776;2023-04-29T08:14:42;12.20;99.90
22167;DHT22;11249;52.468;13.776;2023-04-29T08:17:09;12.20;99.90
22167;DHT22;11249;52.468;13.776;2023-04-29T08:19:35;12.20;99.90
22167;DHT22;11249;52.468;13.776;2023-04-29T08:22:02;12.20;99.90
22167;DHT22;11249;52.468;13.776;2023-04-29T08:24:29;12.20;99.90
22167;DHT22;11249;52.468;13.776;2023-04-29T08:26:56;12.20;99.90
22167;DHT22;11249;52.468;13.776;2023-04-29T08:29:24;12.20;99.90
22167;DHT22;11249;52.468;13.776;2023-04-29T08:31:51;12.20;99.90
22167;DHT22;11249;52.468;13.776;2023-04-29T08:34:18;12.10;99.90
22167;DHT22;11249;52.468;13.776;2023-04-29T08:36:45;12.20;99.90
22167;DHT22;11249;52.468;13.776;2023-04-29T08:39:11;12.10;99.90
22167;DHT22;11249;52.468;13.776;2023-04-29T08:41:38;12.10;99.90
22167;DHT22;11249;52.468;13.776;2023-04-29T08:44:05;12.10;99.90
22167;DHT22;11249;52.468;13.776;2023-04-29T08:46:32;12.10;99.90
22167;DHT22;11249;52.468;13.776;2023-04-29T08:49:02;12.00;99.90
22167;DHT22;11249;52.468;13.776;2023-04-29T08:51:29;12.00;99.90
22167;DHT22;11249;52.468;13.776;2023-04-29T08:53:57;12.00;99.90
22167;DHT22;11249;52.468;13.776;2023-04-29T08:56:24;11.90;99.90
22167;DHT22;11249;52.468;13.776;2023-04-29T08:58:54;11.80;99.90
22167;DHT22;11249;52.468;13.776;2023-04-29T09:01:27;11.80;99.90
22167;DHT22;11249;52.468;13.776;2023-04-29T09:06:40;11.70;99.90
22167;DHT22;11249;52.468;13.776;2023-04-29T09:09:08;11.80;99.90
22167;DHT22;11249;52.468;13.776;2023-04-29T09:11:36;11.70;99.90
22167;DHT22;11249;52.468;13.776;2023-04-29T09:14:02;11.70;99.90
22167;DHT22;11249;52.468;13.776;2023-04-29T09:16:33;11.80;99.90
22167;DHT22;11249;52.468;13.776;2023-04-29T09:19:02;11.70;99.90
22167;DHT22;11249;52.468;13.776;2023-04-29T09:21:29;11.70;99.90
22167;DHT22;11249;52.468;13.776;2023-04-29T09:24:00;11.70;99.90
22167;DHT22;11249;52.468;13.776;2023-04-29T09:26:41;11.60;99.90
22167;DHT22;11249;52.468;13.776;2023-04-29T09:29:10;11.60;99.90
22167;DHT22;11249;52.468;13.776;2023-04-29T09:31:39;11.60;99.90
22167;DHT22;11249;52.468;13.776;2023-04-29T09:34:08;11.60;99.90
22167;DHT22;11249;52.468;13.776;2023-04-29T09:36:36;11.50;99.90
22167;DHT22;11249;52.468;13.776;2023-04-29T09:39:04;11.60;99.90
22167;DHT22;11249;52.468;13.776;2023-04-29T09:41:38;11.60;99.90
22167;DHT22;11249;52.468;13.776;2023-04-29T09:44:07;11.60;99.90
22167;DHT22;11249;52.468;13.776;2023-04-29T09:46:34;11.60;99.90
22167;DHT22;11249;52.468;13.776;2023-04-29T09:49:03;11.60;99.90
22167;DHT22;11249;52.468;13.776;2023-04-29T09:51:32;11.70;99.90
22167;DHT22;11249;52.468;13.776;2023-04-29T09:54:20;11.70;99.90
22167;DHT22;11249;52.468;13.776;2023-04-29T09:56:50;11.60;99.90
22167;DHT22;11249;52.468;13.776;2023-04-29T09:59:18;11.60;99.90
22167;DHT22;11249;52.468;13.776;2023-04-29T10:01:47;11.60;99.90
22167;DHT22;11249;52.468;13.776;2023-04-29T10:04:16;11.60;99.90
22167;DHT22;11249;52.468;13.776;2023-04-29T10:06:44;11.50;99.90
22167;DHT22;11249;52.468;13.776;2023-04-29T10:09:16;11.40;99.90
22167;DHT22;11249;52.468;13.776;2023-04-29T10:11:44;11.40;99.90
22167;DHT22;11249;52.468;13.776;2023-04-29T10:14:12;11.40;99.90
22167;DHT22;11249;52.468;13.776;2023-04-29T10:17:01;11.40;99.90
22167;DHT22;11249;52.468;13.776;2023-04-29T10:19:33;11.30;99.90
22167;DHT22;11249;52.468;13.776;2023-04-29T10:22:09;11.30;99.90
22167;DHT22;11249;52.468;13.776;2023-04-29T10:24:38;11.40;99.90
22167;DHT22;11249;52.468;13.776;2023-04-29T10:27:11;11.40;99.90
22167;DHT22;11249;52.468;13.776;2023-04-29T10:29:39;11.50;99.90
22167;DHT22;11249;52.468;13.776;2023-04-29T10:32:08;11.50;99.90
22167;DHT22;11249;52.468;13.776;2023-04-29T10:34:38;11.40;99.90
22167;DHT22;11249;52.468;13.776;2023-04-29T10:37:11;11.30;99.90
22167;DHT22;11249;52.468;13.776;2023-04-29T10:39:52;11.30;99.90
22167;DHT22;11249;52.468;13.776;2023-04-29T10:42:41;11.30;99.90
22167;DHT22;11249;52.468;13.776;2023-04-29T10:45:27;11.30;99.90
22167;DHT22;11249;52.468;13.776;2023-04-29T10:50:40;11.30;99.90
22167;DHT22;11249;52.468;13.776;2023-04-29T10:53:10;11.20;99.90
22167;DHT22;11249;52.468;13.776;2023-04-29T10:55:37;11.20;99.90
22167;DHT22;11249;52.468;13.776;2023-04-29T10:58:05;11.20;99.90
22167;DHT22;11249;52.468;13.776;2023-04-29T11:00:33;11.10;99.90
22167;DHT22;11249;52.468;13.776;2023-04-29T11:03:01;11.10;99.90
22167;DHT22;11249;52.468;13.776;2023-04-29T11:05:35;11.10;99.90
22167;DHT22;11249;52.468;13.776;2023-04-29T11:08:19;11.20;99.90
22167;DHT22;11249;52.468;13.776;2023-04-29T11:10:54;11.30;99.90
22167;DHT22;11249;52.468;13.776;2023-04-29T11:13:27;11.30;99.90
22167;DHT22;11249;52.468;13.776;2023-04-29T11:16:09;11.20;99.90
22167;DHT22;11249;52.468;13.776;2023-04-29T11:19:03;11.30;99.90
22167;DHT22;11249;52.468;13.776;2023-04-29T11:21:32;11.40;99.90
22167;DHT22;11249;52.468;13.776;2023-04-29T11:23:59;11.40;99.90
22167;DHT22;11249;52.468;13.776;2023-04-29T11:26:26;11.40;99.90
22167;DHT22;11249;52.468;13.776;2023-04-29T11:28:53;11.50;99.90
22167;DHT22;11249;52.468;13.776;2023-04-29T11:31:31;11.50;99.90
22167;DHT22;11249;52.468;13.776;2023-04-29T11:33:59;11.80;99.90
22167;DHT22;11249;52.468;13.776;2023-04-29T11:36:26;12.10;99.90
22167;DHT22;11249;52.468;13.776;2023-04-29T11:38:53;12.30;99.90
22167;DHT22;11249;52.468;13.776;2023-04-29T11:41:20;12.40;99.90
22167;DHT22;11249;52.468;13.776;2023-04-29T11:43:55;12.60;99.90
22167;DHT22;11249;52.468;13.776;2023-04-29T11:46:23;12.70;99.90
22167;DHT22;11249;52.468;13.776;2023-04-29T11:48:50;12.80;99.90
22167;DHT22;11249;52.468;13.776;2023-04-29T11:51:17;12.70;99.90
22167;DHT22;11249;52.468;13.776;2023-04-29T11:53:45;12.70;99.90
22167;DHT22;11249;52.468;13.776;2023-04-29T11:56:12;12.70;99.90
22167;DHT22;11249;52.468;13.776;2023-04-29T11:58:40;12.60;99.90
22167;DHT22;11249;52.468;13.776;2023-04-29T12:01:07;12.50;99.90
22167;DHT22;11249;52.468;13.776;2023-04-29T12:03:34;12.50;99.90
22167;DHT22;11249;52.468;13.776;2023-04-29T12:06:02;12.50;99.90
22167;DHT22;11249;52.468;13.776;2023-04-29T12:08:29;12.40;99.90
22167;DHT22;11249;52.468;13.776;2023-04-29T12:10:58;12.50;99.90
22167;DHT22;11249;52.468;13.776;2023-04-29T12:13:29;12.50;99.90
22167;DHT22;11249;52.468;13.776;2023-04-29T12:15:56;12.70;99.90
22167;DHT22;11249;52.468;13.776;2023-04-29T12:18:24;12.90;99.90
22167;DHT22;11249;52.468;13.776;2023-04-29T12:20:53;13.00;99.90
22167;DHT22;11249;52.468;13.776;2023-04-29T12:23:24;13.20;99.90
22167;DHT22;11249;52.468;13.776;2023-04-29T12:25:58;13.30;99.90
22167;DHT22;11249;52.468;13.776;2023-04-29T12:28:26;13.40;99.90
22167;DHT22;11249;52.468;13.776;2023-04-29T12:30:53;13.60;99.90
22167;DHT22;11249;52.468;13.776;2023-04-29T12:33:24;13.70;99.90
22167;DHT22;11249;52.468;13.776;2023-04-29T12:35:55;13.80;99.90
22167;DHT22;11249;52.468;13.776;2023-04-29T12:38:23;14.00;99.90
22167;DHT22;11249;52.468;13.776;2023-04-29T12:40:56;14.00;99.90
22167;DHT22;11249;52.468;13.776;2023-04-29T12:43:27;14.00;99.90
22167;DHT22;11249;52.468;13.776;2023-04-29T12:46:01;13.90;99.90
22167;DHT22;11249;52.468;13.776;2023-04-29T12:48:31;13.80;99.90
22167;DHT22;11249;52.468;13.776;2023-04-29T12:51:00;13.70;99.90
22167;DHT22;11249;52.468;13.776;2023-04-29T12:53:30;13.60;99.90
22167;DHT22;11249;52.468;13.776;2023-04-29T12:55:57;13.50;99.90
22167;DHT22;11249;52.468;13.776;2023-04-29T12:58:27;13.40;99.90
22167;DHT22;11249;52.468;13.776;2023-04-29T13:00:54;13.40;99.90
22167;DHT22;11249;52.468;13.776;2023-04-29T13:03:21;13.30;99.90
22167;DHT22;11249;52.468;13.776;2023-04-29T13:05:50;13.30;99.90
22167;DHT22;11249;52.468;13.776;2023-04-29T13:08:19;13.30;99.90
22167;DHT22;11249;52.468;13.776;2023-04-29T13:10:46;13.20;99.90
22167;DHT22;11249;52.468;13.776;2023-04-29T13:13:13;13.10;99.90
22167;DHT22;11249;52.468;13.776;2023-04-29T13:15:40;13.10;99.90
22167;DHT22;11249;52.468;13.776;2023-04-29T13:18:07;13.10;99.90
22167;DHT22;11249;52.468;13.776;2023-04-29T13:20:34;13.10;99.90
22167;DHT22;11249;52.468;13.776;2023-04-29T13:23:08;13.10;99.90
22167;DHT22;11249;52.468;13.776;2023-04-29T13:25:36;13.10;99.90
22167;DHT22;11249;52.468;13.776;2023-04-29T13:28:03;13.20;99.90
22167;DHT22;11249;52.468;13.776;2023-04-29T13:30:31;13.30;99.90
22167;DHT22;11249;52.468;13.776;2023-04-29T13:32:58;13.40;99.90
22167;DHT22;11249;52.468;13.776;2023-04-29T13:35:37;13.50;99.90
22167;DHT22;11249;52.468;13.776;2023-04-29T13:38:05;13.60;99.90
22167;DHT22;11249;52.468;13.776;2023-04-29T13:40:32;13.60;99.90
22167;DHT22;11249;52.468;13.776;2023-04-29T13:43:06;13.70;99.90
22167;DHT22;11249;52.468;13.776;2023-04-29T13:45:35;13.80;99.90
22167;DHT22;11249;52.468;13.776;2023-04-29T13:48:05;13.90;99.90
22167;DHT22;11249;52.468;13.776;2023-04-29T13:50:52;14.00;99.90
22167;DHT22;11249;52.468;13.776;2023-04-29T13:53:21;14.10;99.90
22167;DHT22;11249;52.468;13.776;2023-04-29T13:55:51;14.30;99.90
22167;DHT22;11249;52.468;13.776;2023-04-29T13:58:27;14.40;99.90
22167;DHT22;11249;52.468;13.776;2023-04-29T14:01:13;14.50;99.90
22167;DHT22;11249;52.468;13.776;2023-04-29T14:04:00;14.70;99.90
22167;DHT22;11249;52.468;13.776;2023-04-29T14:06:27;14.70;99.90
22167;DHT22;11249;52.468;13.776;2023-04-29T14:08:54;14.70;99.90
22167;DHT22;11249;52.468;13.776;2023-04-29T14:11:20;14.60;99.90
22167;DHT22;11249;52.468;13.776;2023-04-29T14:13:47;14.70;99.90
22167;DHT22;11249;52.468;13.776;2023-04-29T14:16:14;14.90;99.90
22167;DHT22;11249;52.468;13.776;2023-04-29T14:18:40;14.80;99.90
22167;DHT22;11249;52.468;13.776;2023-04-29T14:21:07;14.70;99.90
22167;DHT22;11249;52.468;13.776;2023-04-29T14:23:34;14.60;99.90
22167;DHT22;11249;52.468;13.776;2023-04-29T14:26:01;14.60;99.90
22167;DHT22;11249;52.468;13.776;2023-04-29T14:28:47;14.60;99.90
22167;DHT22;11249;52.468;13.776;2023-04-29T14:31:14;14.50;99.90
22167;DHT22;11249;52.468;13.776;2023-04-29T14:33:43;14.60;99.90
22167;DHT22;11249;52.468;13.776;2023-04-29T14:36:10;14.60;99.90
22167;DHT22;11249;52.468;13.776;2023-04-29T14:38:36;14.60;99.90
22167;DHT22;11249;52.468;13.776;2023-04-29T14:41:03;14.60;99.90
22167;DHT22;11249;52.468;13.776;2023-04-29T14:43:30;14.60;99.90
22167;DHT22;11249;52.468;13.776;2023-04-29T14:45:56;14.60;99.90
22167;DHT22;11249;52.468;13.776;2023-04-29T14:48:24;14.70;99.90
22167;DHT22;11249;52.468;13.776;2023-04-29T14:50:50;14.80;99.90
22167;DHT22;11249;52.468;13.776;2023-04-29T14:53:17;14.80;99.90
22167;DHT22;11249;52.468;13.776;2023-04-29T14:55:44;14.90;99.90
22167;DHT22;11249;52.468;13.776;2023-04-29T14:58:10;14.90;99.90
22167;DHT22;11249;52.468;13.776;2023-04-29T15:00:37;15.00;99.90
22167;DHT22;11249;52.468;13.776;2023-04-29T15:03:04;14.90;99.90
22167;DHT22;11249;52.468;13.776;2023-04-29T15:05:31;15.00;99.90
22167;DHT22;11249;52.468;13.776;2023-04-29T15:07:58;15.00;99.90
22167;DHT22;11249;52.468;13.776;2023-04-29T15:10:27;15.20;99.90
22167;DHT22;11249;52.468;13.776;2023-04-29T15:12:53;15.60;99.90
22167;DHT22;11249;52.468;13.776;2023-04-29T15:15:21;15.70;99.90
22167;DHT22;11249;52.468;13.776;2023-04-29T15:17:48;15.80;99.90
22167;DHT22;11249;52.468;13.776;2023-04-29T15:20:15;16.00;99.90
22167;DHT22;11249;52.468;13.776;2023-04-29T15:22:42;16.20;99.90
22167;DHT22;11249;52.468;13.776;2023-04-29T15:25:09;16.20;99.90
22167;DHT22;11249;52.468;13.776;2023-04-29T15:27:36;16.10;99.90
22167;DHT22;11249;52.468;13.776;2023-04-29T15:30:04;16.10;99.90
22167;DHT22;11249;52.468;13.776;2023-04-29T15:32:31;16.20;99.90
22167;DHT22;11249;52.468;13.776;2023-04-29T15:34:59;15.90;99.90
22167;DHT22;11249;52.468;13.776;2023-04-29T15:37:27;15.90;99.90